Terminal Aerodrome Forecast
Issued by NWS Wilmington, NC

Home | Current Version | Previous Version | Text Only | Print | Product List | Glossary On
Versions: 1 2 3 4 5 6 7 8 9 10
000
FTUS42 KILM 281100
TAFILM
TAF
KILM 281120Z 2812/2912 VRB02KT P6SM SCT035 BKN120
     FM281400 22007KT P6SM BKN025 BKN050
     FM290500 23003KT 4SM BR SCT005 BKN015
     FM290900 35004KT 1SM BR VCSH BKN004=

USA.gov is the U.S. government's official web portal to all federal, state and local government web resources and services.